sensor_id;sensor_type;location;lat;lon;timestamp;pressure;altitude;pressure_sealevel;temperature;humidity
52735;BME280;38631;47.572;10.704;2023-07-13T00:00:23;92605.38;;;15.95;100.00
52735;BME280;38631;47.572;10.704;2023-07-13T00:02:48;92619.53;;;15.96;100.00
52735;BME280;38631;47.572;10.704;2023-07-13T00:05:14;92616.06;;;16.08;100.00
52735;BME280;38631;47.572;10.704;2023-07-13T00:07:39;92608.69;;;15.92;100.00
52735;BME280;38631;47.572;10.704;2023-07-13T00:10:05;92606.81;;;16.05;100.00
52735;BME280;38631;47.572;10.704;2023-07-13T00:12:33;92599.19;;;16.19;100.00
52735;BME280;38631;47.572;10.704;2023-07-13T00:15:03;92587.22;;;16.29;100.00
52735;BME280;38631;47.572;10.704;2023-07-13T00:17:28;92586.88;;;16.31;100.00
52735;BME280;38631;47.572;10.704;2023-07-13T00:19:55;92590.19;;;16.40;100.00
52735;BME280;38631;47.572;10.704;2023-07-13T00:22:21;92583.88;;;16.20;100.00
52735;BME280;38631;47.572;10.704;2023-07-13T00:24:47;92581.56;;;16.18;100.00
52735;BME280;38631;47.572;10.704;2023-07-13T00:27:12;92575.03;;;16.32;100.00
52735;BME280;38631;47.572;10.704;2023-07-13T00:29:38;92573.28;;;16.24;100.00
52735;BME280;38631;47.572;10.704;2023-07-13T00:32:05;92580.53;;;16.35;100.00
52735;BME280;38631;47.572;10.704;2023-07-13T00:34:31;92581.59;;;16.47;100.00
52735;BME280;38631;47.572;10.704;2023-07-13T00:36:56;92588.00;;;16.30;100.00
52735;BME280;38631;47.572;10.704;2023-07-13T00:39:22;92592.59;;;16.57;100.00
52735;BME280;38631;47.572;10.704;2023-07-13T00:41:48;92598.81;;;16.46;100.00
52735;BME280;38631;47.572;10.704;2023-07-13T00:44:14;92599.13;;;16.44;100.00
52735;BME280;38631;47.572;10.704;2023-07-13T00:46:40;92606.09;;;16.33;100.00
52735;BME280;38631;47.572;10.704;2023-07-13T00:49:08;92613.06;;;16.50;100.00
52735;BME280;38631;47.572;10.704;2023-07-13T00:51:40;92609.16;;;16.47;100.00
52735;BME280;38631;47.572;10.704;2023-07-13T00:54:11;92611.88;;;16.35;100.00
52735;BME280;38631;47.572;10.704;2023-07-13T00:56:39;92616.75;;;16.45;100.00
52735;BME280;38631;47.572;10.704;2023-07-13T00:59:08;92606.88;;;16.33;100.00
52735;BME280;38631;47.572;10.704;2023-07-13T01:01:36;92604.19;;;16.33;100.00
52735;BME280;38631;47.572;10.704;2023-07-13T01:04:02;92602.53;;;16.29;100.00
52735;BME280;38631;47.572;10.704;2023-07-13T01:06:27;92604.72;;;16.39;100.00
52735;BME280;38631;47.572;10.704;2023-07-13T01:08:53;92602.75;;;16.24;100.00
52735;BME280;38631;47.572;10.704;2023-07-13T01:11:20;92604.38;;;16.53;100.00
52735;BME280;38631;47.572;10.704;2023-07-13T01:13:47;92610.88;;;16.39;100.00
52735;BME280;38631;47.572;10.704;2023-07-13T01:16:24;92613.78;;;16.34;100.00
52735;BME280;38631;47.572;10.704;2023-07-13T01:18:50;92601.28;;;16.26;100.00
52735;BME280;38631;47.572;10.704;2023-07-13T01:21:15;92610.16;;;16.55;100.00
52735;BME280;38631;47.572;10.704;2023-07-13T01:23:42;92599.38;;;16.39;100.00
52735;BME280;38631;47.572;10.704;2023-07-13T01:26:09;92589.47;;;16.15;100.00
52735;BME280;38631;47.572;10.704;2023-07-13T01:28:34;92595.03;;;16.22;100.00
52735;BME280;38631;47.572;10.704;2023-07-13T01:31:02;92600.53;;;16.26;100.00
52735;BME280;38631;47.572;10.704;2023-07-13T01:33:28;92596.63;;;16.23;100.00
52735;BME280;38631;47.572;10.704;2023-07-13T01:35:54;92591.72;;;16.13;100.00
52735;BME280;38631;47.572;10.704;2023-07-13T01:38:21;92585.38;;;16.05;100.00
52735;BME280;38631;47.572;10.704;2023-07-13T01:40:47;92583.34;;;16.02;100.00
52735;BME280;38631;47.572;10.704;2023-07-13T01:43:13;92585.03;;;15.94;100.00
52735;BME280;38631;47.572;10.704;2023-07-13T01:45:38;92588.47;;;16.07;100.00
52735;BME280;38631;47.572;10.704;2023-07-13T01:48:04;92584.91;;;16.15;100.00
52735;BME280;38631;47.572;10.704;2023-07-13T01:50:32;92592.19;;;16.03;100.00
52735;BME280;38631;47.572;10.704;2023-07-13T01:52:57;92590.16;;;16.12;100.00
52735;BME280;38631;47.572;10.704;2023-07-13T01:55:23;92586.13;;;16.30;100.00
52735;BME280;38631;47.572;10.704;2023-07-13T01:57:49;92587.91;;;16.14;100.00
52735;BME280;38631;47.572;10.704;2023-07-13T02:00:14;92586.53;;;16.32;100.00
52735;BME280;38631;47.572;10.704;2023-07-13T02:02:40;92586.28;;;16.37;100.00
52735;BME280;38631;47.572;10.704;2023-07-13T02:05:06;92592.72;;;16.20;100.00
52735;BME280;38631;47.572;10.704;2023-07-13T02:07:32;92587.94;;;16.02;100.00
52735;BME280;38631;47.572;10.704;2023-07-13T02:09:57;92590.16;;;16.12;100.00
52735;BME280;38631;47.572;10.704;2023-07-13T02:12:23;92596.31;;;16.00;100.00
52735;BME280;38631;47.572;10.704;2023-07-13T02:14:48;92601.47;;;16.05;100.00
52735;BME280;38631;47.572;10.704;2023-07-13T02:17:13;92596.19;;;16.09;100.00
52735;BME280;38631;47.572;10.704;2023-07-13T02:19:39;92597.19;;;16.04;100.00
52735;BME280;38631;47.572;10.704;2023-07-13T02:22:04;92610.47;;;16.25;100.00
52735;BME280;38631;47.572;10.704;2023-07-13T02:24:30;92603.97;;;16.38;100.00
52735;BME280;38631;47.572;10.704;2023-07-13T02:26:55;92609.44;;;16.17;100.00
52735;BME280;38631;47.572;10.704;2023-07-13T02:29:20;92612.81;;;15.90;100.00
52735;BME280;38631;47.572;10.704;2023-07-13T02:31:46;92618.53;;;15.76;100.00
52735;BME280;38631;47.572;10.704;2023-07-13T02:34:11;92622.22;;;16.08;100.00
52735;BME280;38631;47.572;10.704;2023-07-13T02:36:37;92635.13;;;16.31;100.00
52735;BME280;38631;47.572;10.704;2023-07-13T02:39:04;92637.13;;;15.60;100.00
52735;BME280;38631;47.572;10.704;2023-07-13T02:41:30;92643.38;;;15.64;100.00
52735;BME280;38631;47.572;10.704;2023-07-13T02:43:57;92646.31;;;15.71;100.00
52735;BME280;38631;47.572;10.704;2023-07-13T02:46:28;92652.69;;;15.91;100.00
52735;BME280;38631;47.572;10.704;2023-07-13T02:48:54;92647.72;;;15.69;100.00
52735;BME280;38631;47.572;10.704;2023-07-13T02:51:19;92661.69;;;15.74;100.00
52735;BME280;38631;47.572;10.704;2023-07-13T02:53:44;92662.00;;;15.61;100.00
52735;BME280;38631;47.572;10.704;2023-07-13T02:56:10;92658.25;;;15.74;100.00
52735;BME280;38631;47.572;10.704;2023-07-13T02:58:35;92655.19;;;15.63;100.00
52735;BME280;38631;47.572;10.704;2023-07-13T03:01:07;92654.25;;;15.01;100.00
52735;BME280;38631;47.572;10.704;2023-07-13T03:03:32;92657.66;;;15.10;100.00
52735;BME280;38631;47.572;10.704;2023-07-13T03:06:02;92665.84;;;15.39;100.00
52735;BME280;38631;47.572;10.704;2023-07-13T03:08:29;92659.63;;;15.59;100.00
52735;BME280;38631;47.572;10.704;2023-07-13T03:11:01;92658.91;;;15.71;100.00
52735;BME280;38631;47.572;10.704;2023-07-13T03:13:27;92648.47;;;15.32;100.00
52735;BME280;38631;47.572;10.704;2023-07-13T03:15:52;92639.09;;;14.93;100.00
52735;BME280;38631;47.572;10.704;2023-07-13T03:18:18;92641.00;;;14.93;100.00
52735;BME280;38631;47.572;10.704;2023-07-13T03:20:43;92639.91;;;15.06;100.00
52735;BME280;38631;47.572;10.704;2023-07-13T03:23:09;92649.25;;;15.45;100.00
52735;BME280;38631;47.572;10.704;2023-07-13T03:25:34;92649.50;;;15.65;100.00
52735;BME280;38631;47.572;10.704;2023-07-13T03:27:59;92649.13;;;15.75;100.00
52735;BME280;38631;47.572;10.704;2023-07-13T03:30:25;92650.44;;;15.93;100.00
52735;BME280;38631;47.572;10.704;2023-07-13T03:32:50;92657.94;;;15.88;100.00
52735;BME280;38631;47.572;10.704;2023-07-13T03:35:16;92664.50;;;15.90;100.00
52735;BME280;38631;47.572;10.704;2023-07-13T03:37:41;92667.28;;;15.82;100.00
52735;BME280;38631;47.572;10.704;2023-07-13T03:40:08;92667.28;;;15.94;100.00
52735;BME280;38631;47.572;10.704;2023-07-13T03:42:34;92679.91;;;15.93;100.00
52735;BME280;38631;47.572;10.704;2023-07-13T03:45:00;92682.47;;;15.90;100.00
52735;BME280;38631;47.572;10.704;2023-07-13T03:47:25;92691.50;;;15.85;100.00
52735;BME280;38631;47.572;10.704;2023-07-13T03:49:50;92697.19;;;15.84;100.00
52735;BME280;38631;47.572;10.704;2023-07-13T03:52:16;92690.59;;;15.81;100.00
52735;BME280;38631;47.572;10.704;2023-07-13T03:54:41;92694.97;;;15.86;100.00
52735;BME280;38631;47.572;10.704;2023-07-13T03:57:09;92696.28;;;15.80;100.00
52735;BME280;38631;47.572;10.704;2023-07-13T03:59:34;92699.97;;;15.75;100.00
52735;BME280;38631;47.572;10.704;2023-07-13T04:02:00;92704.78;;;15.82;100.00
52735;BME280;38631;47.572;10.704;2023-07-13T04:04:26;92696.50;;;15.74;100.00
52735;BME280;38631;47.572;10.704;2023-07-13T04:06:51;92705.22;;;15.71;100.00
52735;BME280;38631;47.572;10.704;2023-07-13T04:09:18;92707.44;;;15.69;100.00
52735;BME280;38631;47.572;10.704;2023-07-13T04:11:44;92715.31;;;15.66;100.00
52735;BME280;38631;47.572;10.704;2023-07-13T04:14:09;92703.66;;;15.70;100.00
52735;BME280;38631;47.572;10.704;2023-07-13T04:16:34;92713.69;;;15.73;100.00
52735;BME280;38631;47.572;10.704;2023-07-13T04:19:00;92693.50;;;15.76;100.00
52735;BME280;38631;47.572;10.704;2023-07-13T04:21:27;92706.56;;;15.77;100.00
52735;BME280;38631;47.572;10.704;2023-07-13T04:23:53;92694.19;;;15.73;100.00
52735;BME280;38631;47.572;10.704;2023-07-13T04:26:18;92705.34;;;15.75;100.00
52735;BME280;38631;47.572;10.704;2023-07-13T04:28:46;92704.44;;;15.71;100.00
52735;BME280;38631;47.572;10.704;2023-07-13T04:31:12;92706.34;;;15.70;100.00
52735;BME280;38631;47.572;10.704;2023-07-13T04:33:37;92713.16;;;15.80;100.00
52735;BME280;38631;47.572;10.704;2023-07-13T04:36:03;92706.22;;;15.79;100.00
52735;BME280;38631;47.572;10.704;2023-07-13T04:38:30;92722.06;;;15.84;100.00
52735;BME280;38631;47.572;10.704;2023-07-13T04:41:01;92716.81;;;15.75;100.00
52735;BME280;38631;47.572;10.704;2023-07-13T04:43:28;92717.81;;;15.71;100.00
52735;BME280;38631;47.572;10.704;2023-07-13T04:45:53;92716.56;;;15.68;100.00
52735;BME280;38631;47.572;10.704;2023-07-13T04:48:20;92717.66;;;15.67;100.00
52735;BME280;38631;47.572;10.704;2023-07-13T04:50:46;92719.75;;;15.62;100.00
52735;BME280;38631;47.572;10.704;2023-07-13T04:53:11;92713.75;;;15.65;100.00
52735;BME280;38631;47.572;10.704;2023-07-13T04:55:37;92712.91;;;15.73;100.00
52735;BME280;38631;47.572;10.704;2023-07-13T04:58:03;92716.38;;;15.73;100.00
52735;BME280;38631;47.572;10.704;2023-07-13T05:00:30;92715.25;;;15.74;100.00
52735;BME280;38631;47.572;10.704;2023-07-13T05:02:57;92718.84;;;15.79;100.00
52735;BME280;38631;47.572;10.704;2023-07-13T05:05:24;92720.63;;;15.87;100.00
52735;BME280;38631;47.572;10.704;2023-07-13T05:07:49;92716.94;;;15.91;100.00
52735;BME280;38631;47.572;10.704;2023-07-13T05:10:15;92716.72;;;15.96;100.00
52735;BME280;38631;47.572;10.704;2023-07-13T05:12:40;92712.97;;;15.97;100.00
52735;BME280;38631;47.572;10.704;2023-07-13T05:15:06;92707.47;;;15.94;100.00
52735;BME280;38631;47.572;10.704;2023-07-13T05:17:32;92707.78;;;15.92;100.00
52735;BME280;38631;47.572;10.704;2023-07-13T05:19:57;92715.19;;;15.95;100.00
52735;BME280;38631;47.572;10.704;2023-07-13T05:22:23;92709.94;;;16.11;100.00
52735;BME280;38631;47.572;10.704;2023-07-13T05:24:48;92704.03;;;16.30;100.00
52735;BME280;38631;47.572;10.704;2023-07-13T05:27:13;92700.88;;;16.40;100.00
52735;BME280;38631;47.572;10.704;2023-07-13T05:29:39;92700.28;;;16.59;100.00
52735;BME280;38631;47.572;10.704;2023-07-13T05:32:04;92705.22;;;17.10;100.00
52735;BME280;38631;47.572;10.704;2023-07-13T05:34:30;92712.66;;;16.76;100.00
52735;BME280;38631;47.572;10.704;2023-07-13T05:36:55;92711.03;;;16.47;100.00
52735;BME280;38631;47.572;10.704;2023-07-13T05:39:21;92724.19;;;16.52;100.00
52735;BME280;38631;47.572;10.704;2023-07-13T05:41:46;92720.28;;;16.50;100.00
52735;BME280;38631;47.572;10.704;2023-07-13T05:44:12;92730.69;;;16.51;100.00
52735;BME280;38631;47.572;10.704;2023-07-13T05:46:37;92721.66;;;16.44;100.00
52735;BME280;38631;47.572;10.704;2023-07-13T05:49:03;92727.47;;;16.33;100.00
52735;BME280;38631;47.572;10.704;2023-07-13T05:51:29;92742.19;;;16.52;100.00
52735;BME280;38631;47.572;10.704;2023-07-13T05:53:54;92753.00;;;16.68;100.00
52735;BME280;38631;47.572;10.704;2023-07-13T05:56:19;92753.03;;;16.80;100.00
52735;BME280;38631;47.572;10.704;2023-07-13T05:58:45;92757.28;;;16.69;100.00
52735;BME280;38631;47.572;10.704;2023-07-13T06:01:12;92756.28;;;16.49;100.00
52735;BME280;38631;47.572;10.704;2023-07-13T06:03:38;92756.59;;;16.59;100.00
52735;BME280;38631;47.572;10.704;2023-07-13T06:06:08;92756.38;;;16.64;100.00
52735;BME280;38631;47.572;10.704;2023-07-13T06:08:35;92758.94;;;16.73;100.00
52735;BME280;38631;47.572;10.704;2023-07-13T06:11:10;92764.97;;;16.70;100.00
52735;BME280;38631;47.572;10.704;2023-07-13T06:13:37;92762.72;;;16.72;100.00
52735;BME280;38631;47.572;10.704;2023-07-13T06:16:03;92763.53;;;16.73;100.00
52735;BME280;38631;47.572;10.704;2023-07-13T06:18:35;92764.41;;;16.77;100.00
52735;BME280;38631;47.572;10.704;2023-07-13T06:21:09;92764.41;;;16.77;100.00
52735;BME280;38631;47.572;10.704;2023-07-13T06:23:35;92767.66;;;16.82;100.00
52735;BME280;38631;47.572;10.704;2023-07-13T06:26:00;92768.00;;;16.69;100.00
52735;BME280;38631;47.572;10.704;2023-07-13T06:28:26;92761.19;;;16.59;100.00
52735;BME280;38631;47.572;10.704;2023-07-13T06:30:51;92772.03;;;16.50;100.00
52735;BME280;38631;47.572;10.704;2023-07-13T06:33:16;92782.53;;;16.43;100.00
52735;BME280;38631;47.572;10.704;2023-07-13T06:35:42;92783.63;;;16.30;100.00
52735;BME280;38631;47.572;10.704;2023-07-13T06:38:08;92780.03;;;16.13;100.00
52735;BME280;38631;47.572;10.704;2023-07-13T06:40:33;92771.56;;;16.11;100.00
52735;BME280;38631;47.572;10.704;2023-07-13T06:42:59;92784.50;;;16.09;100.00
52735;BME280;38631;47.572;10.704;2023-07-13T06:45:24;92785.16;;;16.06;100.00
52735;BME280;38631;47.572;10.704;2023-07-13T06:47:49;92788.31;;;16.08;100.00
52735;BME280;38631;47.572;10.704;2023-07-13T06:50:15;92792.72;;;15.92;100.00
52735;BME280;38631;47.572;10.704;2023-07-13T06:52:40;92792.72;;;15.92;100.00
52735;BME280;38631;47.572;10.704;2023-07-13T06:55:06;92794.84;;;15.86;100.00
52735;BME280;38631;47.572;10.704;2023-07-13T06:57:31;92803.53;;;15.83;100.00
52735;BME280;38631;47.572;10.704;2023-07-13T06:59:57;92809.34;;;15.85;100.00
52735;BME280;38631;47.572;10.704;2023-07-13T07:02:22;92817.69;;;15.84;100.00
52735;BME280;38631;47.572;10.704;2023-07-13T07:04:48;92806.63;;;15.73;100.00
52735;BME280;38631;47.572;10.704;2023-07-13T07:07:13;92810.41;;;15.72;100.00
52735;BME280;38631;47.572;10.704;2023-07-13T07:09:38;92809.16;;;15.69;100.00
52735;BME280;38631;47.572;10.704;2023-07-13T07:12:04;92814.00;;;15.76;100.00
52735;BME280;38631;47.572;10.704;2023-07-13T07:14:30;92813.72;;;15.69;100.00
52735;BME280;38631;47.572;10.704;2023-07-13T07:16:55;92815.69;;;15.60;100.00
52735;BME280;38631;47.572;10.704;2023-07-13T07:19:21;92815.56;;;15.56;100.00
52735;BME280;38631;47.572;10.704;2023-07-13T07:21:46;92822.63;;;15.61;100.00
52735;BME280;38631;47.572;10.704;2023-07-13T07:24:11;92830.59;;;15.69;100.00
52735;BME280;38631;47.572;10.704;2023-07-13T07:26:37;92838.56;;;15.78;100.00
52735;BME280;38631;47.572;10.704;2023-07-13T07:29:02;92834.34;;;15.89;100.00
52735;BME280;38631;47.572;10.704;2023-07-13T07:31:28;92842.16;;;15.94;100.00
52735;BME280;38631;47.572;10.704;2023-07-13T07:33:53;92843.75;;;15.74;100.00
52735;BME280;38631;47.572;10.704;2023-07-13T07:36:19;92843.47;;;15.67;100.00
52735;BME280;38631;47.572;10.704;2023-07-13T07:38:44;92844.81;;;15.61;100.00
52735;BME280;38631;47.572;10.704;2023-07-13T07:41:10;92848.69;;;15.72;100.00
52735;BME280;38631;47.572;10.704;2023-07-13T07:43:35;92864.41;;;15.74;100.00
52735;BME280;38631;47.572;10.704;2023-07-13T07:46:02;92867.91;;;15.66;100.00
52735;BME280;38631;47.572;10.704;2023-07-13T07:48:27;92868.59;;;15.63;100.00
52735;BME280;38631;47.572;10.704;2023-07-13T07:50:53;92870.13;;;15.64;100.00
52735;BME280;38631;47.572;10.704;2023-07-13T07:53:18;92864.78;;;15.64;100.00
52735;BME280;38631;47.572;10.704;2023-07-13T07:55:44;92868.06;;;15.27;100.00
52735;BME280;38631;47.572;10.704;2023-07-13T07:58:10;92872.41;;;15.32;100.00
52735;BME280;38631;47.572;10.704;2023-07-13T08:00:35;92856.97;;;15.38;100.00
52735;BME280;38631;47.572;10.704;2023-07-13T08:03:01;92857.69;;;15.26;100.00
52735;BME280;38631;47.572;10.704;2023-07-13T08:05:27;92854.69;;;15.27;100.00
52735;BME280;38631;47.572;10.704;2023-07-13T08:07:53;92854.59;;;15.36;100.00
52735;BME280;38631;47.572;10.704;2023-07-13T08:10:18;92858.66;;;15.21;100.00
52735;BME280;38631;47.572;10.704;2023-07-13T08:12:44;92865.38;;;15.27;100.00
52735;BME280;38631;47.572;10.704;2023-07-13T08:15:12;92857.66;;;15.47;100.00
52735;BME280;38631;47.572;10.704;2023-07-13T08:17:38;92861.19;;;15.39;100.00
52735;BME280;38631;47.572;10.704;2023-07-13T08:20:04;92873.72;;;15.47;100.00
52735;BME280;38631;47.572;10.704;2023-07-13T08:22:29;92872.56;;;15.56;100.00
52735;BME280;38631;47.572;10.704;2023-07-13T08:24:55;92879.09;;;15.68;100.00
52735;BME280;38631;47.572;10.704;2023-07-13T08:27:24;92882.53;;;15.68;100.00
52735;BME280;38631;47.572;10.704;2023-07-13T08:29:50;92880.31;;;15.49;100.00
52735;BME280;38631;47.572;10.704;2023-07-13T08:32:15;92866.75;;;15.54;100.00
52735;BME280;38631;47.572;10.704;2023-07-13T08:34:41;92873.13;;;15.62;100.00
52735;BME280;38631;47.572;10.704;2023-07-13T08:37:07;92876.34;;;15.55;100.00
52735;BME280;38631;47.572;10.704;2023-07-13T08:39:32;92873.09;;;15.50;100.00
52735;BME280;38631;47.572;10.704;2023-07-13T08:42:25;92864.06;;;15.54;100.00
52735;BME280;38631;47.572;10.704;2023-07-13T08:45:00;92863.16;;;15.50;100.00
52735;BME280;38631;47.572;10.704;2023-07-13T08:47:32;92867.13;;;15.44;100.00
52735;BME280;38631;47.572;10.704;2023-07-13T08:50:01;92865.00;;;15.38;100.00
52735;BME280;38631;47.572;10.704;2023-07-13T08:52:36;92868.06;;;15.48;100.00
52735;BME280;38631;47.572;10.704;2023-07-13T08:55:13;92860.06;;;15.40;100.00
52735;BME280;38631;47.572;10.704;2023-07-13T08:57:41;92859.19;;;15.36;100.00
52735;BME280;38631;47.572;10.704;2023-07-13T09:00:11;92862.38;;;15.29;100.00
52735;BME280;38631;47.572;10.704;2023-07-13T09:02:58;92866.75;;;15.33;100.00
52735;BME280;38631;47.572;10.704;2023-07-13T09:05:38;92868.78;;;15.58;100.00
52735;BME280;38631;47.572;10.704;2023-07-13T09:10:47;92847.63;;;15.86;100.00
52735;BME280;38631;47.572;10.704;2023-07-13T09:16:04;92862.50;;;15.32;100.00
52735;BME280;38631;47.572;10.704;2023-07-13T09:18:43;92860.63;;;15.33;100.00
52735;BME280;38631;47.572;10.704;2023-07-13T09:21:13;92858.78;;;15.46;100.00
52735;BME280;38631;47.572;10.704;2023-07-13T09:23:40;92867.47;;;15.64;100.00
52735;BME280;38631;47.572;10.704;2023-07-13T09:26:14;92864.22;;;15.58;100.00
52735;BME280;38631;47.572;10.704;2023-07-13T09:28:47;92871.88;;;15.60;100.00
52735;BME280;38631;47.572;10.704;2023-07-13T09:31:16;92886.88;;;15.82;100.00
52735;BME280;38631;47.572;10.704;2023-07-13T09:33:42;92882.22;;;15.49;100.00
52735;BME280;38631;47.572;10.704;2023-07-13T09:38:39;92872.22;;;15.37;100.00
52735;BME280;38631;47.572;10.704;2023-07-13T09:41:21;92881.72;;;15.55;100.00
52735;BME280;38631;47.572;10.704;2023-07-13T09:46:54;92879.16;;;15.59;100.00
52735;BME280;38631;47.572;10.704;2023-07-13T09:49:27;92885.81;;;15.53;100.00
52735;BME280;38631;47.572;10.704;2023-07-13T09:51:59;92888.75;;;15.60;100.00
52735;BME280;38631;47.572;10.704;2023-07-13T09:54:26;92891.22;;;15.44;100.00
52735;BME280;38631;47.572;10.704;2023-07-13T09:56:59;92894.22;;;15.72;100.00
52735;BME280;38631;47.572;10.704;2023-07-13T09:59:35;92888.88;;;15.64;100.00
52735;BME280;38631;47.572;10.704;2023-07-13T10:02:32;92891.66;;;15.67;100.00
52735;BME280;38631;47.572;10.704;2023-07-13T10:05:24;92895.16;;;15.89;100.00
52735;BME280;38631;47.572;10.704;2023-07-13T10:07:51;92897.09;;;16.01;100.00
52735;BME280;38631;47.572;10.704;2023-07-13T10:10:22;92900.63;;;16.13;100.00
52735;BME280;38631;47.572;10.704;2023-07-13T10:12:49;92890.97;;;16.00;100.00
52735;BME280;38631;47.572;10.704;2023-07-13T10:15:24;92883.31;;;16.11;100.00
52735;BME280;38631;47.572;10.704;2023-07-13T10:17:53;92898.97;;;16.21;100.00
52735;BME280;38631;47.572;10.704;2023-07-13T10:20:20;92904.97;;;16.18;100.00
52735;BME280;38631;47.572;10.704;2023-07-13T10:23:04;92900.97;;;15.91;100.00
52735;BME280;38631;47.572;10.704;2023-07-13T10:25:38;92898.59;;;16.10;100.00
52735;BME280;38631;47.572;10.704;2023-07-13T10:28:26;92903.28;;;16.13;100.00
52735;BME280;38631;47.572;10.704;2023-07-13T10:30:53;92903.41;;;16.17;100.00
52735;BME280;38631;47.572;10.704;2023-07-13T10:33:21;92906.56;;;16.31;100.00
52735;BME280;38631;47.572;10.704;2023-07-13T10:35:51;92903.41;;;16.17;100.00
52735;BME280;38631;47.572;10.704;2023-07-13T10:38:22;92906.91;;;16.30;100.00
52735;BME280;38631;47.572;10.704;2023-07-13T10:40:59;92906.25;;;16.45;100.00
52735;BME280;38631;47.572;10.704;2023-07-13T10:43:30;92907.38;;;16.44;100.00
52735;BME280;38631;47.572;10.704;2023-07-13T10:45:59;92903.47;;;16.41;100.00
52735;BME280;38631;47.572;10.704;2023-07-13T10:48:26;92896.91;;;16.51;100.00
52735;BME280;38631;47.572;10.704;2023-07-13T10:50:53;92912.25;;;16.63;100.00
52735;BME280;38631;47.572;10.704;2023-07-13T10:58:41;92906.81;;;16.38;100.00
52735;BME280;38631;47.572;10.704;2023-07-13T11:01:10;92907.75;;;16.55;100.00
52735;BME280;38631;47.572;10.704;2023-07-13T11:03:46;92904.03;;;16.80;100.00
52735;BME280;38631;47.572;10.704;2023-07-13T11:11:39;92890.94;;;16.79;100.00
52735;BME280;38631;47.572;10.704;2023-07-13T11:16:53;92906.50;;;16.98;100.00
52735;BME280;38631;47.572;10.704;2023-07-13T11:22:11;92901.44;;;17.33;100.00
52735;BME280;38631;47.572;10.704;2023-07-13T11:27:42;92890.72;;;17.21;100.00
52735;BME280;38631;47.572;10.704;2023-07-13T11:30:21;92893.28;;;17.17;100.00
52735;BME280;38631;47.572;10.704;2023-07-13T11:32:51;92896.19;;;17.00;100.00
52735;BME280;38631;47.572;10.704;2023-07-13T11:35:22;92901.47;;;17.09;100.00
52735;BME280;38631;47.572;10.704;2023-07-13T11:37:51;92897.31;;;16.99;100.00
52735;BME280;38631;47.572;10.704;2023-07-13T11:40:18;92884.81;;;16.91;99.91
52735;BME280;38631;47.572;10.704;2023-07-13T11:42:44;92890.28;;;17.06;100.00
52735;BME280;38631;47.572;10.704;2023-07-13T11:45:21;92882.13;;;17.03;100.00
52735;BME280;38631;47.572;10.704;2023-07-13T11:47:48;92882.78;;;17.00;100.00
52735;BME280;38631;47.572;10.704;2023-07-13T11:50:19;92883.69;;;17.04;99.50
52735;BME280;38631;47.572;10.704;2023-07-13T11:52:46;92887.69;;;17.10;98.81
52735;BME280;38631;47.572;10.704;2023-07-13T11:55:15;92884.56;;;17.08;97.57
52735;BME280;38631;47.572;10.704;2023-07-13T11:57:49;92879.63;;;17.10;94.05
52735;BME280;38631;47.572;10.704;2023-07-13T12:00:18;92884.34;;;16.89;96.96
52735;BME280;38631;47.572;10.704;2023-07-13T12:02:47;92882.44;;;17.01;99.45
52735;BME280;38631;47.572;10.704;2023-07-13T12:05:16;92882.00;;;16.99;94.88
52735;BME280;38631;47.572;10.704;2023-07-13T12:07:49;92878.75;;;16.94;95.58
52735;BME280;38631;47.572;10.704;2023-07-13T12:10:19;92878.09;;;16.97;95.85
52735;BME280;38631;47.572;10.704;2023-07-13T12:12:48;92878.84;;;16.97;100.00
52735;BME280;38631;47.572;10.704;2023-07-13T12:15:14;92878.41;;;16.95;97.14
52735;BME280;38631;47.572;10.704;2023-07-13T12:17:40;92871.25;;;17.24;96.74
52735;BME280;38631;47.572;10.704;2023-07-13T12:20:25;92882.56;;;16.80;97.14
52735;BME280;38631;47.572;10.704;2023-07-13T12:22:51;92874.63;;;17.21;95.58
52735;BME280;38631;47.572;10.704;2023-07-13T12:25:18;92868.41;;;17.45;94.91
52735;BME280;38631;47.572;10.704;2023-07-13T12:27:50;92867.41;;;17.37;92.97
52735;BME280;38631;47.572;10.704;2023-07-13T12:30:28;92872.25;;;17.32;96.93
52735;BME280;38631;47.572;10.704;2023-07-13T12:33:10;92873.94;;;17.24;100.00
52735;BME280;38631;47.572;10.704;2023-07-13T12:35:50;92865.59;;;17.54;100.00
52735;BME280;38631;47.572;10.704;2023-07-13T12:38:18;92868.88;;;17.87;97.49
52735;BME280;38631;47.572;10.704;2023-07-13T12:40:49;92872.28;;;18.00;95.24
52735;BME280;38631;47.572;10.704;2023-07-13T12:43:16;92875.25;;;17.83;94.66
52735;BME280;38631;47.572;10.704;2023-07-13T12:46:04;92871.41;;;17.56;91.71
52735;BME280;38631;47.572;10.704;2023-07-13T12:48:38;92865.38;;;17.46;93.71
52735;BME280;38631;47.572;10.704;2023-07-13T12:51:10;92867.38;;;17.49;91.24
52735;BME280;38631;47.572;10.704;2023-07-13T12:53:40;92857.78;;;17.48;91.19
52735;BME280;38631;47.572;10.704;2023-07-13T12:56:13;92856.38;;;17.67;93.63
52735;BME280;38631;47.572;10.704;2023-07-13T12:58:42;92860.78;;;17.59;92.06
52735;BME280;38631;47.572;10.704;2023-07-13T13:01:10;92866.69;;;17.53;93.15
52735;BME280;38631;47.572;10.704;2023-07-13T13:03:49;92873.03;;;17.73;92.78
52735;BME280;38631;47.572;10.704;2023-07-13T13:08:44;92867.41;;;17.90;91.45
52735;BME280;38631;47.572;10.704;2023-07-13T13:11:10;92879.69;;;18.03;92.01
52735;BME280;38631;47.572;10.704;2023-07-13T13:13:35;92866.78;;;18.09;94.51
52735;BME280;38631;47.572;10.704;2023-07-13T13:16:09;92875.34;;;17.99;92.46